Time;durP1;ratioP1;P1;durP2;ratioP2;P2;SDS_P1;SDS_P2;PMS_P1;PMS_P2;Temp;Humidity;BMP_temperature;BMP_pressure;BME280_temperature;BME280_humidity;BME280_pressure;Samples;Min_cycle;Max_cycle;Signal;HPM_P1;HPM_P2
2022/12/05 00:01:04;;;;;;;;;1.75;1.75;;;;;10.23;77.54;101507.78;146609;571;46017;-70
2022/12/05 00:04:18;;;;;;;;;2.00;1.00;;;;;10.13;77.53;101464.84;146613;592;47012;-70
2022/12/05 00:07:11;;;;;;;;;33.50;30.00;;;;;13.00;78.24;101969.56;146628;635;45016;-70
2022/12/05 00:10:24;;;;;;;;;13.25;11.75;;;;;12.99;79.03;101974.69;146628;564;45010;-71
2022/12/05 00:13:17;;;;;;;;;16.00;14.00;;;;;12.96;79.10;101975.41;146628;575;45012;-69
2022/12/05 00:16:45;;;;;;;;;11.00;11.00;;;;;10.18;79.11;101500.59;146630;565;45020;-69
2022/12/05 00:19:37;;;;;;;;;15.50;13.75;;;;;12.85;79.50;101974.72;146626;674;45936;-71
2022/12/05 00:22:35;;;;;;;;;7.00;7.00;;;;;12.81;79.70;101967.53;146637;618;45021;-72
2022/12/05 00:25:34;;;;;;;;;8.50;6.50;;;;;12.77;79.80;101967.25;146635;671;45012;-71
2022/12/05 00:28:41;;;;;;;;;;;;;;;;;;;;;
2022/12/05 00:31:36;;;;;;;;;6.25;5.00;;;;;12.64;80.32;101976.88;146633;679;45016;-71
2022/12/05 00:34:39;;;;;;;;;3.00;3.00;;;;;12.60;80.33;101966.22;146636;626;45020;-71
2022/12/05 00:37:56;;;;;;;;;3.50;3.50;;;;;9.76;80.06;101479.66;146635;610;45916;-71
2022/12/05 00:41:01;;;;;;;;;4.00;3.00;;;;;12.58;80.65;101976.50;146634;598;46012;-72
2022/12/05 00:44:04;;;;;;;;;4.00;4.00;;;;;12.61;80.23;101983.59;146636;635;45013;-72
2022/12/05 00:47:20;;;;;;;;;2.50;2.50;;;;;12.61;80.87;101971.50;146637;668;45019;-73
2022/12/05 00:50:33;;;;;;;;;6.25;5.25;;;;;10.01;79.91;101516.75;146634;564;46014;-73
2022/12/05 00:53:35;;;;;;;;;5.25;5.25;;;;;12.61;80.38;101981.00;146634;578;45020;-73
2022/12/05 00:56:31;;;;;;;;;5.00;4.00;;;;;12.58;80.80;101981.72;146634;676;45016;-73
2022/12/05 00:59:32;;;;;;;;;4.00;4.00;;;;;12.57;81.00;101982.53;146632;684;47020;-73
2022/12/05 01:02:33;;;;;;;;;5.50;5.00;;;;;12.57;80.65;101979.03;146632;605;45016;-73
2022/12/05 01:05:28;;;;;;;;;3.00;3.00;;;;;12.54;80.71;101971.03;146622;653;46021;-74
2022/12/05 01:08:23;;;;;;;;;3.75;3.75;;;;;12.49;80.94;101970.72;146612;625;46012;-72
2022/12/05 01:11:30;;;;;;;;;3.33;3.33;;;;;12.48;81.25;101966.31;146613;576;46020;-74
2022/12/05 01:14:34;;;;;;;;;5.00;4.00;;;;;12.46;81.27;101958.44;146610;664;47012;-73
2022/12/05 01:17:34;;;;;;;;;8.25;7.00;;;;;12.47;81.47;101952.44;146616;664;46010;-71
2022/12/05 01:20:39;;;;;;;;;6.25;5.50;;;;;12.45;80.87;101958.31;146613;662;46916;-71
2022/12/05 01:23:55;;;;;;;;;5.75;4.75;;;;;9.75;80.83;101491.72;146611;624;47012;-71
2022/12/05 01:26:52;;;;;;;;;10.25;7.25;;;;;12.38;81.10;101957.03;146612;565;46016;-73
2022/12/05 01:30:02;;;;;;;;;6.00;5.00;;;;;12.40;81.36;101958.06;146618;564;46010;-71
2022/12/05 01:32:57;;;;;;;;;3.00;2.25;;;;;12.41;81.46;101958.94;146609;668;47014;-74
2022/12/05 01:35:55;;;;;;;;;2.00;2.00;;;;;12.41;81.83;101952.03;146616;576;46021;-73
2022/12/05 01:38:48;;;;;;;;;3.00;3.00;;;;;12.41;81.44;101951.16;146611;565;46016;-73
2022/12/05 01:42:01;;;;;;;;;3.25;1.75;;;;;12.39;81.57;101956.22;146612;569;46020;-73
2022/12/05 01:45:22;;;;;;;;;4.00;3.00;;;;;12.42;81.38;101947.72;146612;638;46012;-73
2022/12/05 01:48:50;;;;;;;;;;;;;;;;;;;;;
2022/12/05 01:51:51;;;;;;;;;4.00;3.00;;;;;12.39;81.60;101945.81;146611;574;46914;-73
2022/12/05 01:54:49;;;;;;;;;4.25;2.25;;;;;12.40;81.52;101949.34;146612;566;46020;-73
2022/12/05 01:57:54;;;;;;;;;5.50;4.25;;;;;9.65;81.42;101453.03;146611;643;46017;-73
2022/12/05 02:00:51;;;;;;;;;4.50;4.50;;;;;12.42;81.80;101937.31;146616;579;46032;-74
2022/12/05 02:04:02;;;;;;;;;;;;;;;;;;;;;
2022/12/05 02:07:05;;;;;;;;;3.50;3.25;;;;;12.48;81.72;101938.59;146635;676;46012;-73
2022/12/05 02:10:11;;;;;;;;;4.50;4.50;;;;;12.48;82.22;101932.50;146634;613;45012;-74
2022/12/05 02:13:25;;;;;;;;;4.33;3.00;;;;;12.50;81.99;101927.41;146637;591;45020;-73
2022/12/05 02:17:01;;;;;;;;;5.00;4.00;;;;;12.52;81.89;101926.69;146636;654;46014;-74
2022/12/05 02:20:37;;;;;;;;;4.50;4.00;;;;;11.13;81.49;101689.16;146636;654;45020;-73
2022/12/05 02:24:13;;;;;;;;;5.00;4.50;;;;;9.73;81.03;101418.19;146637;569;45016;-73
2022/12/05 02:28:01;;;;;;;;;3.00;3.00;;;;;12.56;81.37;101920.88;146635;629;45021;-73
2022/12/05 02:31:35;;;;;;;;;3.25;3.00;;;;;12.60;81.09;101927.19;146633;583;45915;-75
2022/12/05 02:35:25;;;;;;;;;2.67;1.67;;;;;12.66;80.68;101927.56;146637;570;45021;-73
2022/12/05 02:38:54;;;;;;;;;3.00;2.33;;;;;12.74;80.79;101935.81;146634;586;45913;-72
2022/12/05 02:42:22;;;;;;;;;1.00;1.00;;;;;9.95;79.73;101431.75;146639;564;45020;-72
2022/12/05 02:45:22;;;;;;;;;2.67;2.67;;;;;12.80;79.89;101929.28;146632;600;45915;-74
2022/12/05 02:48:30;;;;;;;;;7.00;5.50;;;;;12.84;79.87;101933.00;146634;588;45020;-73
2022/12/05 02:51:30;;;;;;;;;8.75;8.50;;;;;12.84;80.22;101933.91;146634;623;45012;-72
2022/12/05 02:54:34;;;;;;;;;8.75;8.00;;;;;12.84;80.17;101927.81;146639;569;44043;-75
2022/12/05 02:57:35;;;;;;;;;10.00;7.25;;;;;12.82;80.54;101924.19;146630;566;45916;-73
2022/12/05 03:00:27;;;;;;;;;10.25;10.25;;;;;12.80;80.83;101939.69;146639;705;45020;-73
2022/12/05 03:03:28;;;;;;;;;8.00;7.00;;;;;12.80;81.07;101931.87;146640;590;44016;-73
2022/12/05 03:06:58;;;;;;;;;10.50;6.00;;;;;12.80;80.90;101928.41;146615;678;46020;-74
2022/12/05 03:10:16;;;;;;;;;6.75;5.75;;;;;12.74;80.94;101921.13;146608;604;47012;-72
2022/12/05 03:13:34;;;;;;;;;;;;;;;;;;;;;
2022/12/05 03:16:50;;;;;;;;;6.33;4.33;;;;;12.18;80.94;101837.84;146612;614;46913;-78
2022/12/05 03:20:21;;;;;;;;;5.00;3.00;;;;;10.13;80.37;101477.78;146610;577;46010;-75
2022/12/05 03:23:29;;;;;;;;;4.00;3.67;;;;;12.73;80.89;101939.25;146611;578;46016;-76
2022/12/05 03:27:17;;;;;;;;;3.25;3.00;;;;;12.76;80.74;101942.94;146614;565;46010;-76
2022/12/05 03:30:28;;;;;;;;;3.67;2.67;;;;;12.77;80.54;101929.09;146611;601;46012;-76
2022/12/05 03:33:36;;;;;;;;;;;;;;;;;;;;;
2022/12/05 03:36:48;;;;;;;;;4.00;1.67;;;;;12.81;80.96;101928.50;146615;617;46012;-75
2022/12/05 03:39:52;;;;;;;;;4.50;3.00;;;;;12.83;80.47;101926.88;146614;564;46025;-76
2022/12/05 03:43:07;;;;;;;;;5.25;3.75;;;;;12.86;81.12;101923.56;146605;581;47916;-76
2022/12/05 03:46:43;;;;;;;;;4.00;3.00;;;;;12.88;80.72;101927.16;146615;602;46010;-76
2022/12/05 03:50:01;;;;;;;;;5.00;3.00;;;;;12.89;80.72;101928.97;146613;604;46016;-76
2022/12/05 03:53:08;;;;;;;;;4.00;2.67;;;;;12.89;80.62;101928.97;146610;577;46020;-74
2022/12/05 03:56:32;;;;;;;;;4.00;3.25;;;;;10.35;80.64;101473.22;146615;739;46012;-75
2022/12/05 04:00:09;;;;;;;;;4.00;3.25;;;;;12.87;80.98;101926.28;146614;604;46020;-75
2022/12/05 04:03:26;;;;;;;;;2.00;2.00;;;;;12.84;81.37;101931.28;146613;588;46012;-74
2022/12/05 04:06:56;;;;;;;;;5.00;4.25;;;;;10.29;81.31;101485.78;146612;563;47010;-74
2022/12/05 04:10:08;;;;;;;;;6.25;5.75;;;;;12.80;81.57;101928.41;146610;714;46017;-74
2022/12/05 04:13:25;;;;;;;;;9.75;7.75;;;;;12.77;81.45;101933.41;146609;569;48010;-74
2022/12/05 04:17:03;;;;;;;;;6.25;5.75;;;;;12.76;81.55;101942.03;146609;582;46016;-72
2022/12/05 04:25:31;;;;;;;;;7.50;5.25;;;;;12.77;82.17;101951.63;146610;575;47012;-74
2022/12/05 04:27:28;;;;;;;;;;;;;;;;;;;;;
2022/12/05 04:30:54;;;;;;;;;4.00;3.25;;;;;12.71;81.95;101933.97;146610;651;46016;-74
2022/12/05 04:34:30;;;;;;;;;5.00;3.25;;;;;12.69;81.46;101927.75;146615;580;46023;-73
2022/12/05 04:37:30;;;;;;;;;3.00;2.33;;;;;12.69;81.92;101930.34;146614;571;46016;-75
2022/12/05 04:41:03;;;;;;;;;4.33;3.67;;;;;12.69;81.92;101926.03;146615;660;46010;-73
2022/12/05 04:44:05;;;;;;;;;4.00;3.67;;;;;12.69;82.33;101925.16;146612;591;46034;-74
2022/12/05 04:47:09;;;;;;;;;5.25;4.00;;;;;12.73;82.75;101936.62;146614;565;46020;-71
2022/12/05 04:50:04;;;;;;;;;6.25;6.25;;;;;12.73;82.90;101945.34;146612;621;47014;-73
2022/12/05 04:53:15;;;;;;;;;9.75;8.75;;;;;12.76;83.14;101948.13;146612;706;46010;-70
2022/12/05 04:56:14;;;;;;;;;10.00;9.00;;;;;12.77;83.09;101955.13;146611;674;46016;-71
2022/12/05 04:59:07;;;;;;;;;11.75;11.50;;;;;12.78;83.40;101951.75;146611;563;46020;-74
2022/12/05 05:02:13;;;;;;;;;20.50;18.50;;;;;10.06;82.60;101484.28;146603;596;46918;-75
2022/12/05 05:05:19;;;;;;;;;8.75;7.75;;;;;12.78;82.92;101969.97;146606;577;46010;-77
2022/12/05 05:08:31;;;;;;;;;;;;;;;;;;;;;
2022/12/05 05:11:41;;;;;;;;;18.00;15.00;;;;;10.00;82.73;101478.69;146607;576;47010;-77
2022/12/05 05:14:40;;;;;;;;;7.00;6.00;;;;;12.73;83.42;101960.06;146610;569;46016;-75
2022/12/05 05:17:44;;;;;;;;;7.00;5.00;;;;;12.68;83.50;101963.28;146613;679;48010;-75
2022/12/05 05:20:40;;;;;;;;;7.00;6.25;;;;;12.64;83.90;101962.97;146608;638;47014;-74
2022/12/05 05:23:37;;;;;;;;;4.50;3.75;;;;;12.63;84.24;101964.69;146612;570;46020;-77
2022/12/05 05:26:36;;;;;;;;;8.25;6.00;;;;;12.62;84.41;101962.91;146612;563;46017;-69
2022/12/05 05:29:35;;;;;;;;;7.50;6.75;;;;;12.63;84.63;101971.59;146615;569;46020;-70
2022/12/05 05:32:36;;;;;;;;;8.00;7.25;;;;;12.59;84.53;101974.81;146613;645;46017;-73
2022/12/05 05:35:48;;;;;;;;;7.00;6.00;;;;;12.58;84.08;101973.00;146615;673;47010;-70
2022/12/05 05:38:59;;;;;;;;;10.00;8.00;;;;;9.75;83.87;101478.78;146608;671;47015;-70
2022/12/05 05:42:01;;;;;;;;;7.00;6.00;;;;;12.55;85.30;101970.22;146614;632;47010;-69
2022/12/05 05:45:02;;;;;;;;;6.25;5.25;;;;;12.52;85.35;101968.31;146608;715;47012;-75
2022/12/05 05:48:01;;;;;;;;;7.33;4.33;;;;;12.50;85.49;101972.53;146614;569;47010;-74
2022/12/05 05:51:09;;;;;;;;;4.00;4.00;;;;;12.47;85.69;101985.34;146610;569;46016;-74
2022/12/05 05:54:04;;;;;;;;;4.00;3.00;;;;;12.44;85.98;101978.25;146613;611;46021;-73
2022/12/05 05:56:58;;;;;;;;;5.00;3.00;;;;;12.43;86.55;101984.25;146613;687;47014;-69
2022/12/05 06:00:05;;;;;;;;;;;;;;;;;;;;;
2022/12/05 06:03:10;;;;;;;;;7.25;7.25;;;;;12.45;86.81;101987.84;146614;604;46014;-70
2022/12/05 06:06:23;;;;;;;;;15.75;12.50;;;;;12.45;86.71;102000.84;146607;623;47010;-72
2022/12/05 06:09:15;;;;;;;;;14.50;11.50;;;;;12.45;86.91;102005.16;146629;582;45012;-73
2022/12/05 06:12:16;;;;;;;;;13.50;10.75;;;;;12.44;87.26;102011.16;146630;595;45020;-74
2022/12/05 06:15:26;;;;;;;;;13.00;9.50;;;;;12.46;87.11;102014.75;146629;709;45016;-73
2022/12/05 06:18:25;;;;;;;;;10.00;10.00;;;;;12.45;87.27;102021.66;146631;570;45913;-70
2022/12/05 06:21:24;;;;;;;;;11.25;10.00;;;;;12.47;87.01;102019.16;146627;582;45016;-71
2022/12/05 06:24:23;;;;;;;;;15.25;14.50;;;;;12.48;87.23;102027.06;146629;610;46012;-74
2022/12/05 06:27:18;;;;;;;;;28.00;22.75;;;;;12.50;87.11;102031.47;146626;646;45016;-75
2022/12/05 06:30:18;;;;;;;;;21.25;17.25;;;;;12.48;87.34;102031.38;146627;573;45914;-75
2022/12/05 06:33:20;;;;;;;;;6.75;5.75;;;;;12.44;87.42;102032.88;146627;675;48915;-72
2022/12/05 06:36:25;;;;;;;;;11.00;7.75;;;;;12.42;87.04;102041.38;146637;574;45010;-72
2022/12/05 06:39:29;;;;;;;;;;;;;;;;;;;;;
2022/12/05 06:42:27;;;;;;;;;22.50;20.75;;;;;12.41;87.94;102055.19;146631;622;45019;-73
2022/12/05 06:45:37;;;;;;;;;16.50;13.50;;;;;12.41;87.61;102058.69;146624;569;46915;-73
2022/12/05 06:48:49;;;;;;;;;17.00;11.50;;;;;9.61;87.66;101571.03;146632;603;45020;-73
2022/12/05 06:51:44;;;;;;;;;8.50;7.50;;;;;12.46;88.57;102075.50;146632;587;45016;-75
2022/12/05 06:54:40;;;;;;;;;14.25;13.50;;;;;12.48;88.55;102071.28;146633;570;45010;-77
2022/12/05 06:57:36;;;;;;;;;32.75;29.50;;;;;12.48;88.33;102076.47;146629;598;45016;-75
2022/12/05 07:03:59;;;;;;;;;35.00;30.75;;;;;12.54;88.12;102077.69;146629;605;44912;-74
2022/12/05 07:06:52;;;;;;;;;25.75;25.75;;;;;12.56;87.80;102079.59;146624;593;45020;-73
2022/12/05 07:09:53;;;;;;;;;24.00;22.00;;;;;12.57;88.26;102077.91;146601;659;47014;-72
2022/12/05 07:12:45;;;;;;;;;17.25;14.50;;;;;12.59;88.11;102090.22;146606;582;46020;-71
2022/12/05 07:15:40;;;;;;;;;13.00;12.25;;;;;12.60;88.58;102076.38;146603;604;46015;-71
2022/12/05 07:18:33;;;;;;;;;7.75;6.75;;;;;12.63;88.66;102071.38;146606;620;47010;-72
2022/12/05 07:21:26;;;;;;;;;15.75;13.50;;;;;12.67;88.57;102073.38;146605;624;47014;-71
2022/12/05 07:24:18;;;;;;;;;13.00;10.75;;;;;12.67;88.25;102070.75;146610;583;46011;-71
2022/12/05 07:27:21;;;;;;;;;14.25;12.25;;;;;12.60;88.35;102049.47;146606;613;46014;-70
2022/12/05 07:30:26;;;;;;;;;9.25;7.50;;;;;12.69;88.38;102070.87;146612;621;47013;-70
2022/12/05 07:33:29;;;;;;;;;10.00;8.25;;;;;12.69;88.97;102063.97;146608;566;46016;-74
2022/12/05 07:36:31;;;;;;;;;10.50;7.25;;;;;12.69;88.32;102076.09;146610;564;46020;-75
2022/12/05 07:39:26;;;;;;;;;6.25;5.00;;;;;12.69;88.42;102065.69;146610;694;47012;-73
2022/12/05 07:42:24;;;;;;;;;10.75;7.00;;;;;12.72;88.18;102068.47;146613;729;46020;-70
2022/12/05 07:45:17;;;;;;;;;6.00;5.00;;;;;12.76;88.00;102083.47;146612;615;46016;-74
2022/12/05 07:48:23;;;;;;;;;5.25;5.25;;;;;12.80;88.17;102080.25;146615;572;46020;-74
2022/12/05 07:51:17;;;;;;;;;7.25;5.25;;;;;12.84;88.12;102079.66;146622;590;47012;-71
2022/12/05 07:54:12;;;;;;;;;9.25;9.00;;;;;12.83;87.77;102084.75;146611;604;46021;-71
2022/12/05 07:57:09;;;;;;;;;5.00;5.00;;;;;12.77;87.20;102076.56;146612;569;46012;-71
2022/12/05 08:00:11;;;;;;;;;;;;;;;;;;;;;
2022/12/05 08:03:09;;;;;;;;;11.50;9.25;;;;;12.78;87.55;102080.97;146607;600;46016;-73
2022/12/05 08:06:22;;;;;;;;;3.75;3.75;;;;;10.00;87.28;101595.28;146612;638;47010;-73
2022/12/05 08:09:19;;;;;;;;;6.00;6.00;;;;;12.76;87.13;102079.97;146613;616;46016;-71
2022/12/05 08:12:12;;;;;;;;;5.75;4.25;;;;;12.77;87.06;102085.25;146612;669;46020;-72
2022/12/05 08:15:09;;;;;;;;;4.75;4.00;;;;;12.78;87.23;102083.59;146610;580;46017;-73
2022/12/05 08:18:19;;;;;;;;;4.00;3.25;;;;;12.79;86.42;102090.59;146610;567;47010;-73
2022/12/05 08:21:25;;;;;;;;;7.50;6.00;;;;;12.80;86.09;102085.47;146610;563;46016;-72
2022/12/05 08:24:21;;;;;;;;;6.00;5.00;;;;;12.83;86.70;102089.97;146615;686;46010;-71
2022/12/05 08:27:14;;;;;;;;;8.50;5.50;;;;;12.87;86.75;102092.00;146612;563;46016;-73
2022/12/05 08:30:27;;;;;;;;;12.50;11.50;;;;;10.26;86.47;101622.03;146608;634;47020;-74
2022/12/05 08:33:23;;;;;;;;;17.50;16.75;;;;;12.97;87.11;102098.69;146612;748;46016;-73
2022/12/05 08:36:23;;;;;;;;;12.00;11.00;;;;;13.02;87.32;102092.97;146616;596;46010;-73
2022/12/05 08:39:32;;;;;;;;;18.75;17.50;;;;;13.07;87.73;102094.13;146611;575;46016;-72
2022/12/05 08:42:31;;;;;;;;;13.50;11.50;;;;;13.13;87.56;102101.44;146618;577;46010;-72
2022/12/05 08:45:34;;;;;;;;;17.75;14.75;;;;;13.13;86.83;102096.22;146614;589;46013;-73
2022/12/05 08:48:31;;;;;;;;;35.00;30.25;;;;;13.17;86.71;102099.09;146614;613;46020;-73
2022/12/05 08:51:27;;;;;;;;;16.00;13.50;;;;;13.18;87.00;102082.69;146614;593;46012;-73
2022/12/05 08:54:31;;;;;;;;;25.75;23.50;;;;;13.28;87.35;102085.91;146609;566;47021;-73
2022/12/05 08:57:25;;;;;;;;;21.00;20.75;;;;;13.31;87.60;102094.81;146613;600;46016;-73
2022/12/05 09:00:36;;;;;;;;;20.00;16.50;;;;;13.33;87.50;102094.87;146614;600;46010;-73
2022/12/05 09:03:29;;;;;;;;;21.00;19.75;;;;;13.36;87.45;102090.78;146608;569;47012;-73
2022/12/05 09:06:29;;;;;;;;;20.00;18.75;;;;;13.39;87.66;102084.84;146614;621;46021;-73
2022/12/05 09:09:33;;;;;;;;;20.75;20.75;;;;;13.44;87.78;102083.44;146605;599;46012;-73
2022/12/05 09:12:29;;;;;;;;;19.50;18.00;;;;;13.49;87.75;102075.88;146607;647;47010;-73
2022/12/05 09:15:24;;;;;;;;;18.00;18.00;;;;;13.54;87.59;102079.66;146603;579;46014;-73
2022/12/05 09:18:27;;;;;;;;;17.25;16.50;;;;;13.60;87.86;102073.13;146610;613;46010;-73
2022/12/05 09:21:33;;;;;;;;;64.25;49.00;;;;;13.65;87.36;102064.69;146605;597;46016;-73
2022/12/05 09:24:28;;;;;;;;;22.25;19.75;;;;;13.71;87.76;102063.34;146602;605;46020;-73
2022/12/05 09:27:26;;;;;;;;;31.25;24.00;;;;;13.76;87.46;102061.91;146605;615;46016;-73
2022/12/05 09:30:26;;;;;;;;;24.50;19.25;;;;;13.78;87.16;102052.47;146604;575;46020;-74
2022/12/05 09:33:18;;;;;;;;;29.75;23.50;;;;;13.83;87.02;102051.06;146605;595;47012;-74
2022/12/05 09:36:32;;;;;;;;;42.25;34.75;;;;;13.84;86.16;102047.63;146606;599;46011;-72
2022/12/05 09:39:30;;;;;;;;;24.75;22.75;;;;;13.88;86.20;102034.78;146605;607;46012;-74
2022/12/05 09:43:06;;;;;;;;;17.50;16.00;;;;;13.93;85.86;102041.16;146609;593;46010;-78
2022/12/05 09:46:11;;;;;;;;;43.25;34.50;;;;;13.99;86.08;102039.81;146603;639;46016;-74
2022/12/05 09:49:12;;;;;;;;;26.50;24.25;;;;;14.04;86.05;102045.28;146601;676;47010;-74
2022/12/05 09:52:09;;;;;;;;;23.50;22.75;;;;;14.06;86.17;102039.34;146605;583;46016;-75
2022/12/05 09:55:25;;;;;;;;;23.25;20.25;;;;;11.42;85.18;101572.44;146607;563;46020;-75
2022/12/05 09:58:49;;;;;;;;;12.75;10.75;;;;;11.42;84.65;101567.25;146605;582;46018;-76
2022/12/05 10:02:39;;;;;;;;;13.50;12.00;;;;;14.12;84.54;102025.78;146606;570;46020;-75
2022/12/05 10:06:43;;;;;;;;;14.25;11.00;;;;;11.59;84.00;101550.09;146603;607;46017;-76
2022/12/05 10:10:11;;;;;;;;;20.00;19.75;;;;;14.44;84.96;102003.22;146630;610;45020;-76
2022/12/05 10:13:41;;;;;;;;;19.50;15.50;;;;;14.71;85.84;102004.78;146626;598;47011;-75
2022/12/05 10:16:46;;;;;;;;;15.00;14.00;;;;;15.01;85.65;102000.31;146632;563;45020;-74
2022/12/05 10:19:48;;;;;;;;;13.00;8.00;;;;;15.22;84.03;101997.94;146627;643;45915;-76
2022/12/05 10:23:18;;;;;;;;;;;;;;;;;;;;;
2022/12/05 10:26:21;;;;;;;;;9.00;7.00;;;;;15.41;78.48;101973.66;146635;566;45915;-75
2022/12/05 10:29:51;;;;;;;;;7.67;6.33;;;;;15.45;79.18;101975.63;146636;614;45031;-76
2022/12/05 10:33:26;;;;;;;;;3.50;3.50;;;;;15.46;76.50;101980.00;146636;592;45913;-75
2022/12/05 10:36:27;;;;;;;;;4.67;4.67;;;;;15.36;75.55;101972.53;146635;626;46010;-75
2022/12/05 10:39:25;;;;;;;;;3.00;3.00;;;;;15.29;76.42;101974.72;146636;572;45016;-75
2022/12/05 10:42:52;;;;;;;;;5.33;5.33;;;;;15.23;77.04;101970.06;146638;578;45020;-75
2022/12/05 10:45:55;;;;;;;;;5.00;5.00;;;;;15.23;78.72;101967.47;146640;600;45016;-74
2022/12/05 10:49:00;;;;;;;;;6.67;5.67;;;;;15.31;80.00;101960.94;146639;591;45020;-74
2022/12/05 10:51:58;;;;;;;;;4.00;3.00;;;;;15.38;79.70;101955.19;146638;588;45915;-75
2022/12/05 10:54:59;;;;;;;;;4.67;3.33;;;;;15.44;78.15;101955.50;146640;601;45020;-74
2022/12/05 10:58:26;;;;;;;;;2.33;1.67;;;;;15.41;77.54;101950.12;146634;576;45915;-75
2022/12/05 11:01:36;;;;;;;;;0.00;0.00;;;;;12.71;75.79;101499.38;146635;607;46036;-76
2022/12/05 11:04:42;;;;;;;;;2.00;2.00;;;;;15.17;75.25;101952.37;146638;646;45017;-76
2022/12/05 11:08:01;;;;;;;;;2.00;1.00;;;;;12.39;77.28;101475.06;146633;641;46020;-75
2022/12/05 11:11:35;;;;;;;;;1.00;1.00;;;;;15.05;76.90;101946.53;146612;661;46035;-75
2022/12/05 11:14:35;;;;;;;;;2.67;2.00;;;;;14.96;76.70;101943.44;146617;599;46020;-73
2022/12/05 11:17:39;;;;;;;;;1.00;0.00;;;;;14.83;75.24;101946.19;146614;579;46016;-75
2022/12/05 11:20:41;;;;;;;;;2.00;2.00;;;;;14.69;76.94;101925.47;146617;578;46021;-76
2022/12/05 11:23:39;;;;;;;;;0.33;0.33;;;;;14.69;76.07;101943.72;146611;569;46915;-74
2022/12/05 11:27:02;;;;;;;;;1.67;1.67;;;;;12.45;77.45;101540.41;146615;579;46020;-74
2022/12/05 11:30:23;;;;;;;;;7.00;7.00;;;;;14.72;76.51;101930.84;146614;722;46919;-74
2022/12/05 11:33:41;;;;;;;;;2.00;2.00;;;;;12.37;77.14;101507.91;146613;563;46010;-74
2022/12/05 11:36:46;;;;;;;;;3.00;3.00;;;;;14.72;78.23;101917.78;146613;596;46916;-75
2022/12/05 11:39:38;;;;;;;;;4.33;3.67;;;;;14.79;77.47;101925.13;146614;564;47010;-74
2022/12/05 11:43:03;;;;;;;;;2.33;2.33;;;;;14.75;76.64;101906.62;146615;647;46012;-75
2022/12/05 11:46:52;;;;;;;;;3.00;2.67;;;;;14.77;77.00;101916.34;146615;563;46010;-75
2022/12/05 11:50:25;;;;;;;;;7.33;3.33;;;;;12.13;76.38;101445.00;146614;620;46017;-75
2022/12/05 11:54:10;;;;;;;;;6.00;6.00;;;;;12.23;74.87;101464.59;146614;569;46020;-75
2022/12/05 11:57:36;;;;;;;;;;;;;;;;;;;;;
2022/12/05 12:01:16;;;;;;;;;0.00;0.00;;;;;14.82;77.76;101898.28;146616;579;46010;-74
2022/12/05 12:04:50;;;;;;;;;3.00;2.33;;;;;14.96;77.56;101886.84;146611;571;46016;-75
2022/12/05 12:08:24;;;;;;;;;6.33;5.33;;;;;12.77;76.34;101454.53;146617;595;46020;-74
2022/12/05 12:12:07;;;;;;;;;2.00;1.00;;;;;13.05;75.61;101457.84;146611;597;46016;-74
2022/12/05 12:15:30;;;;;;;;;5.00;3.33;;;;;15.75;73.35;101899.56;146614;597;47008;-77
2022/12/05 12:18:46;;;;;;;;;1.33;1.33;;;;;15.73;72.46;101895.97;146613;665;47014;-74
2022/12/05 12:22:17;;;;;;;;;5.50;5.50;;;;;15.59;72.09;101903.09;146614;571;46010;-75
2022/12/05 12:26:04;;;;;;;;;3.00;3.00;;;;;13.73;72.96;101613.37;146613;574;46016;-77
2022/12/05 12:29:38;;;;;;;;;2.00;2.00;;;;;15.11;74.05;101881.53;146618;618;46020;-75
2022/12/05 12:33:11;;;;;;;;;2.00;0.67;;;;;12.41;74.03;101434.44;146612;582;46016;-75
2022/12/05 12:36:28;;;;;;;;;2.33;0.67;;;;;14.90;74.98;101894.37;146617;572;46010;-74
2022/12/05 12:40:03;;;;;;;;;10.00;8.00;;;;;13.33;75.53;101639.00;146612;582;47014;-75
2022/12/05 12:43:18;;;;;;;;;3.67;2.00;;;;;14.71;74.64;101892.50;146615;599;47010;-75
2022/12/05 12:47:00;;;;;;;;;4.00;2.67;;;;;12.45;75.08;101497.91;146610;600;47012;-76
2022/12/05 12:50:24;;;;;;;;;4.00;2.67;;;;;14.62;74.48;101884.19;146612;574;46022;-74
2022/12/05 12:54:04;;;;;;;;;4.50;4.25;;;;;12.13;74.78;101451.91;146613;614;46016;-75
2022/12/05 12:57:30;;;;;;;;;2.33;1.00;;;;;14.57;74.23;101880.41;146615;601;46020;-77
2022/12/05 13:01:01;;;;;;;;;4.00;4.00;;;;;14.51;74.72;101878.38;146612;607;46915;-75
2022/12/05 13:04:11;;;;;;;;;11.00;10.00;;;;;14.46;74.01;101872.00;146613;578;47010;-75
2022/12/05 13:07:13;;;;;;;;;2.33;1.33;;;;;14.44;74.48;101872.72;146610;630;47012;-74
2022/12/05 13:10:43;;;;;;;;;1.67;1.00;;;;;14.42;75.53;101869.12;146610;571;46012;-75
2022/12/05 13:13:46;;;;;;;;;2.33;2.33;;;;;14.43;74.97;101865.72;146611;570;47012;-74
2022/12/05 13:16:44;;;;;;;;;4.33;4.33;;;;;14.44;76.07;101862.28;146615;599;46020;-75
2022/12/05 13:19:52;;;;;;;;;5.00;5.00;;;;;14.45;75.42;101861.47;146612;596;46017;-75
2022/12/05 13:23:08;;;;;;;;;8.50;7.75;;;;;14.41;74.56;101859.50;146610;629;47010;-76
2022/12/05 13:26:45;;;;;;;;;3.67;3.67;;;;;11.75;76.03;101398.63;146613;572;46016;-75
2022/12/05 13:30:18;;;;;;;;;8.25;6.25;;;;;14.45;76.81;101853.63;146615;570;47010;-75
2022/12/05 13:33:24;;;;;;;;;9.25;8.00;;;;;14.44;75.03;101855.34;146605;652;46015;-74
2022/12/05 13:43:29;;;;;;;;;3.00;3.00;;;;;14.35;76.63;101861.78;146616;642;46020;-75
2022/12/05 13:46:48;;;;;;;;;7.50;7.25;;;;;14.37;77.35;101862.78;146611;671;46016;-74
2022/12/05 13:49:56;;;;;;;;;9.00;9.00;;;;;14.35;76.21;101864.41;146613;670;46021;-75
2022/12/05 13:53:04;;;;;;;;;3.00;2.00;;;;;14.33;76.14;101865.22;146609;601;46016;-74
2022/12/05 13:56:31;;;;;;;;;3.33;3.33;;;;;11.55;76.54;101377.56;146617;599;46011;-75
2022/12/05 14:00:15;;;;;;;;;;;;;;;;;;;;;
2022/12/05 14:03:38;;;;;;;;;1.33;1.00;;;;;14.28;75.74;101871.91;146616;590;46010;-74
2022/12/05 14:07:00;;;;;;;;;4.33;3.33;;;;;11.51;74.53;101393.78;146611;639;46915;-76
2022/12/05 14:10:01;;;;;;;;;3.00;2.33;;;;;14.20;76.51;101867.97;146634;603;45020;-74
2022/12/05 14:13:29;;;;;;;;;1.00;1.00;;;;;14.20;75.99;101877.50;146635;571;45918;-75
2022/12/05 14:16:51;;;;;;;;;0.00;0.00;;;;;11.41;74.95;101388.88;146635;576;45020;-76
2022/12/05 14:20:35;;;;;;;;;1.67;1.67;;;;;14.14;76.03;101877.16;146635;582;46014;-75
2022/12/05 14:24:21;;;;;;;;;;;;;;;;;;;;;
2022/12/05 14:28:04;;;;;;;;;3.33;3.33;;;;;11.37;76.64;101428.47;146634;586;45017;-75
2022/12/05 14:31:57;;;;;;;;;2.67;2.67;;;;;11.31;77.14;101428.09;146634;586;45020;-74
2022/12/05 14:35:33;;;;;;;;;;;;;;;;;;;;;
2022/12/05 14:38:45;;;;;;;;;1.67;0.67;;;;;13.91;76.74;101892.44;146636;610;46020;-74
2022/12/05 14:41:59;;;;;;;;;8.75;8.75;;;;;13.91;77.47;101892.44;146638;577;45012;-74
2022/12/05 14:45:12;;;;;;;;;5.00;3.33;;;;;13.91;77.09;101889.81;146637;577;45020;-74
2022/12/05 14:48:35;;;;;;;;;2.00;2.00;;;;;12.23;76.75;101599.81;146637;564;45013;-74
2022/12/05 14:52:02;;;;;;;;;5.75;4.50;;;;;11.18;77.04;101421.25;146630;712;46020;-74
2022/12/05 14:55:16;;;;;;;;;7.50;6.25;;;;;13.83;78.06;101886.81;146631;637;45017;-73
2022/12/05 14:58:49;;;;;;;;;6.25;6.25;;;;;12.11;78.29;101588.69;146634;578;45020;-74
2022/12/05 15:01:56;;;;;;;;;10.50;9.75;;;;;13.79;78.05;101884.81;146625;592;46012;-74
2022/12/05 15:04:59;;;;;;;;;5.00;5.00;;;;;13.79;78.41;101878.72;146636;606;45012;-75
2022/12/05 15:07:53;;;;;;;;;10.00;7.50;;;;;13.79;78.23;101886.53;146625;571;47016;-75
2022/12/05 15:10:49;;;;;;;;;10.00;8.75;;;;;13.78;78.18;101890.84;146614;606;46021;-76
2022/12/05 15:13:44;;;;;;;;;2.00;2.00;;;;;13.76;78.27;101894.19;146609;599;46917;-73
2022/12/05 15:16:40;;;;;;;;;4.25;4.25;;;;;13.75;78.21;101890.69;146618;628;46011;-75
2022/12/05 15:20:14;;;;;;;;;3.00;3.00;;;;;13.71;78.40;101888.72;146613;694;46915;-76